CST,Max TemperatureF,Mean TemperatureF,Min TemperatureF,Max Dew PointF,MeanDew PointF,Min DewpointF,Max Humidity, Mean Humidity, Min Humidity, Max Sea Level PressureIn, Mean Sea Level PressureIn, Min Sea Level PressureIn, Max VisibilityMiles, Mean VisibilityMiles, Min VisibilityMiles, Max Wind SpeedMPH, Mean Wind SpeedMPH, Max Gust SpeedMPH,PrecipitationIn, CloudCover, Events, WindDirDegrees
2014-1-1,8,4,0,1,-3,-10,76,69,62,30.34,30.30,30.25,10,10,3,14,9,20,0.00,8,Snow,14
2014-1-2,9,0,-9,2,-2,-14,85,75,65,30.39,30.30,30.21,10,9,2,16,10,23,0.00,4,Snow,352
2014-1-3,17,-1,-19,12,-4,-24,85,77,63,30.39,30.13,29.75,10,10,5,23,6,34,0.00,2,,180
2014-1-4,30,23,15,26,17,7,87,76,66,30.06,29.82,29.67,10,10,5,22,13,31,0.00,6,Snow,236
2014-1-5,15,4,-8,7,-5,-17,73,64,52,30.16,30.09,30.03,10,10,10,20,12,26,0.00,7,,332
2014-1-6,-8,-12,-17,-18,-23,-28,71,63,54,30.15,30.11,30.03,10,9,3,20,14,29,0.00,8,,278
2014-1-7,0,-8,-17,-10,-17,-24,79,68,57,30.25,30.18,30.13,10,10,10,12,7,,0.00,0,,228
2014-1-8,6,-4,-15,-6,-14,-21,83,72,55,30.47,30.37,30.24,10,10,10,6,1,,0.00,0,,276
2014-1-9,22,2,-18,20,-2,-24,92,77,61,30.49,30.32,30.09,10,10,5,10,2,,0.00,6,,147
2014-1-10,36,29,22,36,29,20,100,97,91,30.09,29.80,29.44,7,3,0,10,6,17,0.21,8,Fog-Rain,158
2014-1-11,35,32,28,35,29,24,100,90,82,29.73,29.51,29.39,10,8,0,16,8,24,0.17,8,Fog,276
2014-1-12,37,31,25,32,28,24,96,85,69,29.75,29.63,29.52,10,10,7,22,10,31,0.00,3,,193
2014-1-13,39,30,21,32,28,17,96,82,69,29.71,29.58,29.50,10,10,10,15,5,21,0.00,5,,242
2014-1-14,32,24,16,32,23,14,96,87,68,29.87,29.62,29.49,10,6,1,23,9,31,0.02,8,Snow,226
2014-1-15,16,12,9,12,6,3,86,77,72,30.04,29.93,29.67,10,10,4,15,10,23,0.00,5,Snow,253
2014-1-16,32,22,12,31,19,8,96,82,63,29.67,29.52,29.40,10,8,1,20,14,30,0.01,8,Snow,232
2014-1-17,19,14,8,14,8,1,85,79,70,29.91,29.81,29.67,10,8,2,13,8,21,0.00,7,Snow,277
2014-1-18,18,8,-2,14,5,-5,92,85,74,29.87,29.81,29.74,10,8,2,9,2,,0.00,5,Snow,95
2014-1-19,32,18,5,26,17,3,92,81,69,29.79,29.58,29.46,10,10,10,15,8,21,0.00,2,,227
2014-1-20,31,18,4,27,12,-5,93,81,58,30.18,29.90,29.60,10,9,2,18,8,26,0.00,8,Snow,21
2014-1-21,4,-2,-9,-6,-9,-14,82,69,60,30.32,30.24,30.13,10,10,7,20,9,31,0.00,1,,323
2014-1-22,10,4,-3,4,-5,-12,82,72,59,30.15,29.98,29.84,10,8,1,17,7,24,0.00,6,Snow,265
2014-1-23,5,-1,-8,-6,-10,-16,72,66,58,30.53,30.42,30.15,10,10,7,16,12,25,0.00,1,,290
2014-1-24,28,9,-10,27,4,-16,92,72,59,30.41,29.82,29.36,10,8,2,26,14,37,0.00,6,Snow,218
2014-1-25,30,16,3,27,0,-8,92,57,45,29.81,29.61,29.35,10,9,5,26,13,31,0.00,2,Snow,291
2014-1-26,23,13,2,16,4,-6,86,76,58,29.78,29.49,29.33,10,6,1,25,8,37,0.02,7,Snow,228
2014-1-27,2,-6,-13,-6,-16,-21,76,60,50,30.35,30.17,29.79,10,10,4,20,14,30,0.00,1,,284
2014-1-28,0,-8,-17,-12,-16,-22,78,65,54,30.34,30.25,30.13,10,10,10,14,7,18,0.00,0,,238
2014-1-29,21,8,-4,8,-3,-12,73,62,49,30.12,30.02,29.84,10,10,10,18,9,29,0.00,0,,215
2014-1-30,29,22,15,27,16,8,92,74,57,29.91,29.69,29.54,10,9,0,21,14,31,0.01,5,Snow,211
2014-1-31,14,8,2,7,0,-2,84,71,63,30.13,30.06,29.91,10,10,10,10,4,17,0.00,0,,298